sensor_id;sensor_type;location;lat;lon;timestamp;temperature;humidity
46784;DHT22;32544;52.832;13.816;2024-01-15T00:00:28;23.20;45.40
46784;DHT22;32544;52.832;13.816;2024-01-15T00:01:29;23.20;45.50
46784;DHT22;32544;52.832;13.816;2024-01-15T00:02:30;23.20;45.40
46784;DHT22;32544;52.832;13.816;2024-01-15T00:03:30;23.20;45.50
46784;DHT22;32544;52.832;13.816;2024-01-15T00:04:31;23.20;45.40
46784;DHT22;32544;52.832;13.816;2024-01-15T00:05:31;23.30;45.40
46784;DHT22;32544;52.832;13.816;2024-01-15T00:06:32;23.20;45.40
46784;DHT22;32544;52.832;13.816;2024-01-15T00:07:33;23.30;45.40
46784;DHT22;32544;52.832;13.816;2024-01-15T00:08:34;23.30;45.40
46784;DHT22;32544;52.832;13.816;2024-01-15T00:09:34;23.30;45.40
46784;DHT22;32544;52.832;13.816;2024-01-15T00:10:35;23.30;45.30
46784;DHT22;32544;52.832;13.816;2024-01-15T00:11:36;23.30;45.30
46784;DHT22;32544;52.832;13.816;2024-01-15T00:12:36;23.30;45.30
46784;DHT22;32544;52.832;13.816;2024-01-15T00:13:37;23.30;45.30
46784;DHT22;32544;52.832;13.816;2024-01-15T00:14:37;23.30;45.30
46784;DHT22;32544;52.832;13.816;2024-01-15T00:15:38;23.30;45.30
46784;DHT22;32544;52.832;13.816;2024-01-15T00:16:39;23.30;45.30
46784;DHT22;32544;52.832;13.816;2024-01-15T00:17:40;23.30;45.30
46784;DHT22;32544;52.832;13.816;2024-01-15T00:18:41;23.30;45.30
46784;DHT22;32544;52.832;13.816;2024-01-15T00:19:42;23.30;45.40
46784;DHT22;32544;52.832;13.816;2024-01-15T00:20:42;23.30;45.30
46784;DHT22;32544;52.832;13.816;2024-01-15T00:21:43;23.30;45.20
46784;DHT22;32544;52.832;13.816;2024-01-15T00:22:43;23.30;45.30
46784;DHT22;32544;52.832;13.816;2024-01-15T00:23:44;23.30;45.30
46784;DHT22;32544;52.832;13.816;2024-01-15T00:24:45;23.30;45.20
46784;DHT22;32544;52.832;13.816;2024-01-15T00:25:45;23.40;45.30
46784;DHT22;32544;52.832;13.816;2024-01-15T00:26:46;23.30;45.30
46784;DHT22;32544;52.832;13.816;2024-01-15T00:27:46;23.30;45.40
46784;DHT22;32544;52.832;13.816;2024-01-15T00:28:47;23.30;45.40
46784;DHT22;32544;52.832;13.816;2024-01-15T00:29:47;23.30;45.40
46784;DHT22;32544;52.832;13.816;2024-01-15T00:30:48;23.30;45.40
46784;DHT22;32544;52.832;13.816;2024-01-15T00:31:49;23.30;45.40
46784;DHT22;32544;52.832;13.816;2024-01-15T00:32:49;23.20;45.40
46784;DHT22;32544;52.832;13.816;2024-01-15T00:33:50;23.20;45.40
46784;DHT22;32544;52.832;13.816;2024-01-15T00:34:50;23.20;45.40
46784;DHT22;32544;52.832;13.816;2024-01-15T00:35:51;23.20;45.50
46784;DHT22;32544;52.832;13.816;2024-01-15T00:36:51;23.20;45.70
46784;DHT22;32544;52.832;13.816;2024-01-15T00:37:52;23.20;45.70
46784;DHT22;32544;52.832;13.816;2024-01-15T00:38:53;23.10;45.80
46784;DHT22;32544;52.832;13.816;2024-01-15T00:39:53;23.10;45.80
46784;DHT22;32544;52.832;13.816;2024-01-15T00:40:54;23.10;45.80
46784;DHT22;32544;52.832;13.816;2024-01-15T00:41:55;23.10;45.70
46784;DHT22;32544;52.832;13.816;2024-01-15T00:42:55;23.10;45.70
46784;DHT22;32544;52.832;13.816;2024-01-15T00:43:56;23.10;45.90
46784;DHT22;32544;52.832;13.816;2024-01-15T00:44:56;23.10;45.90
46784;DHT22;32544;52.832;13.816;2024-01-15T00:45:57;23.00;45.90
46784;DHT22;32544;52.832;13.816;2024-01-15T00:46:57;23.00;46.00
46784;DHT22;32544;52.832;13.816;2024-01-15T00:47:58;23.00;45.90
46784;DHT22;32544;52.832;13.816;2024-01-15T00:49:01;23.00;46.00
46784;DHT22;32544;52.832;13.816;2024-01-15T00:50:01;23.00;46.00
46784;DHT22;32544;52.832;13.816;2024-01-15T00:51:02;23.00;45.90
46784;DHT22;32544;52.832;13.816;2024-01-15T00:52:03;23.00;45.90
46784;DHT22;32544;52.832;13.816;2024-01-15T00:53:03;23.00;46.10
46784;DHT22;32544;52.832;13.816;2024-01-15T00:54:04;23.00;46.10
46784;DHT22;32544;52.832;13.816;2024-01-15T00:55:05;23.00;46.20
46784;DHT22;32544;52.832;13.816;2024-01-15T00:56:05;23.00;46.20
46784;DHT22;32544;52.832;13.816;2024-01-15T00:57:06;22.90;46.00
46784;DHT22;32544;52.832;13.816;2024-01-15T00:58:06;23.00;45.90
46784;DHT22;32544;52.832;13.816;2024-01-15T00:59:07;23.00;45.90
46784;DHT22;32544;52.832;13.816;2024-01-15T01:00:10;22.90;45.90
46784;DHT22;32544;52.832;13.816;2024-01-15T01:01:12;23.00;46.30
46784;DHT22;32544;52.832;13.816;2024-01-15T01:02:12;22.90;46.20
46784;DHT22;32544;52.832;13.816;2024-01-15T01:03:13;22.90;46.30
46784;DHT22;32544;52.832;13.816;2024-01-15T01:04:13;22.90;46.00
46784;DHT22;32544;52.832;13.816;2024-01-15T01:05:14;22.90;46.20
46784;DHT22;32544;52.832;13.816;2024-01-15T01:06:14;22.90;46.40
46784;DHT22;32544;52.832;13.816;2024-01-15T01:07:15;22.90;45.80
46784;DHT22;32544;52.832;13.816;2024-01-15T01:08:15;22.90;46.30
46784;DHT22;32544;52.832;13.816;2024-01-15T01:09:16;22.90;46.20
46784;DHT22;32544;52.832;13.816;2024-01-15T01:10:16;22.90;46.40
46784;DHT22;32544;52.832;13.816;2024-01-15T01:11:17;22.90;46.20
46784;DHT22;32544;52.832;13.816;2024-01-15T01:12:18;22.90;46.30
46784;DHT22;32544;52.832;13.816;2024-01-15T01:13:18;22.90;46.40
46784;DHT22;32544;52.832;13.816;2024-01-15T01:14:19;22.90;46.50
46784;DHT22;32544;52.832;13.816;2024-01-15T01:15:19;22.90;46.40
46784;DHT22;32544;52.832;13.816;2024-01-15T01:16:20;22.90;46.20
46784;DHT22;32544;52.832;13.816;2024-01-15T01:17:21;22.90;46.20
46784;DHT22;32544;52.832;13.816;2024-01-15T01:18:21;23.00;46.20
46784;DHT22;32544;52.832;13.816;2024-01-15T01:19:22;23.00;46.00
46784;DHT22;32544;52.832;13.816;2024-01-15T01:20:22;23.00;46.50
46784;DHT22;32544;52.832;13.816;2024-01-15T01:21:23;23.00;46.40
46784;DHT22;32544;52.832;13.816;2024-01-15T01:22:23;22.90;46.30
46784;DHT22;32544;52.832;13.816;2024-01-15T01:23:24;23.00;46.40
46784;DHT22;32544;52.832;13.816;2024-01-15T01:24:24;23.00;46.40
46784;DHT22;32544;52.832;13.816;2024-01-15T01:25:25;23.00;46.40
46784;DHT22;32544;52.832;13.816;2024-01-15T01:26:26;23.00;46.40
46784;DHT22;32544;52.832;13.816;2024-01-15T01:27:26;23.00;46.30
46784;DHT22;32544;52.832;13.816;2024-01-15T01:28:27;23.00;46.10
46784;DHT22;32544;52.832;13.816;2024-01-15T01:29:28;23.00;46.20
46784;DHT22;32544;52.832;13.816;2024-01-15T01:30:28;23.00;45.90
46784;DHT22;32544;52.832;13.816;2024-01-15T01:31:29;23.00;45.90
46784;DHT22;32544;52.832;13.816;2024-01-15T01:32:29;23.00;45.90
46784;DHT22;32544;52.832;13.816;2024-01-15T01:33:30;23.00;45.70
46784;DHT22;32544;52.832;13.816;2024-01-15T01:34:32;23.00;45.80
46784;DHT22;32544;52.832;13.816;2024-01-15T01:35:33;23.00;45.60
46784;DHT22;32544;52.832;13.816;2024-01-15T01:36:33;23.00;45.30
46784;DHT22;32544;52.832;13.816;2024-01-15T01:37:34;23.00;45.60
46784;DHT22;32544;52.832;13.816;2024-01-15T01:38:35;23.10;45.40
46784;DHT22;32544;52.832;13.816;2024-01-15T01:39:36;23.10;45.90
46784;DHT22;32544;52.832;13.816;2024-01-15T01:40:36;23.10;45.70
46784;DHT22;32544;52.832;13.816;2024-01-15T01:41:38;23.10;45.50
46784;DHT22;32544;52.832;13.816;2024-01-15T01:42:38;23.10;45.70
46784;DHT22;32544;52.832;13.816;2024-01-15T01:43:39;23.10;45.80
46784;DHT22;32544;52.832;13.816;2024-01-15T01:44:40;23.10;45.60
46784;DHT22;32544;52.832;13.816;2024-01-15T01:45:40;23.10;45.70
46784;DHT22;32544;52.832;13.816;2024-01-15T01:46:41;23.10;45.60
46784;DHT22;32544;52.832;13.816;2024-01-15T01:47:41;23.10;45.20
46784;DHT22;32544;52.832;13.816;2024-01-15T01:48:42;23.10;45.40
46784;DHT22;32544;52.832;13.816;2024-01-15T01:49:43;23.10;45.50
46784;DHT22;32544;52.832;13.816;2024-01-15T01:50:43;23.10;45.40
46784;DHT22;32544;52.832;13.816;2024-01-15T01:51:45;23.10;45.60
46784;DHT22;32544;52.832;13.816;2024-01-15T01:52:46;23.10;45.60
46784;DHT22;32544;52.832;13.816;2024-01-15T01:53:47;23.10;45.10
46784;DHT22;32544;52.832;13.816;2024-01-15T01:54:48;23.10;45.10
46784;DHT22;32544;52.832;13.816;2024-01-15T01:55:49;23.10;44.90
46784;DHT22;32544;52.832;13.816;2024-01-15T01:56:50;23.10;44.80
46784;DHT22;32544;52.832;13.816;2024-01-15T01:57:51;23.10;45.00
46784;DHT22;32544;52.832;13.816;2024-01-15T01:58:51;23.10;44.90
46784;DHT22;32544;52.832;13.816;2024-01-15T01:59:52;23.10;44.80
46784;DHT22;32544;52.832;13.816;2024-01-15T02:00:53;23.10;45.40
46784;DHT22;32544;52.832;13.816;2024-01-15T02:01:54;23.10;45.10
46784;DHT22;32544;52.832;13.816;2024-01-15T02:02:55;23.10;44.90
46784;DHT22;32544;52.832;13.816;2024-01-15T02:03:55;23.10;44.80
46784;DHT22;32544;52.832;13.816;2024-01-15T02:04:56;23.10;44.70
46784;DHT22;32544;52.832;13.816;2024-01-15T02:05:57;23.10;44.60
46784;DHT22;32544;52.832;13.816;2024-01-15T02:06:59;23.10;44.70
46784;DHT22;32544;52.832;13.816;2024-01-15T02:08:00;23.10;44.90
46784;DHT22;32544;52.832;13.816;2024-01-15T02:09:00;23.10;44.70
46784;DHT22;32544;52.832;13.816;2024-01-15T02:10:01;23.10;44.80
46784;DHT22;32544;52.832;13.816;2024-01-15T02:11:02;23.10;44.80
46784;DHT22;32544;52.832;13.816;2024-01-15T02:12:03;23.10;44.70
46784;DHT22;32544;52.832;13.816;2024-01-15T02:13:03;23.10;44.70
46784;DHT22;32544;52.832;13.816;2024-01-15T02:14:04;23.10;44.70
46784;DHT22;32544;52.832;13.816;2024-01-15T02:15:04;23.10;44.80
46784;DHT22;32544;52.832;13.816;2024-01-15T02:16:05;23.10;45.10
46784;DHT22;32544;52.832;13.816;2024-01-15T02:17:06;23.10;44.80
46784;DHT22;32544;52.832;13.816;2024-01-15T02:18:06;23.10;44.70
46784;DHT22;32544;52.832;13.816;2024-01-15T02:19:10;23.10;45.00
46784;DHT22;32544;52.832;13.816;2024-01-15T02:20:14;23.10;44.90
46784;DHT22;32544;52.832;13.816;2024-01-15T02:21:15;23.10;44.90
46784;DHT22;32544;52.832;13.816;2024-01-15T02:22:16;23.10;44.90
46784;DHT22;32544;52.832;13.816;2024-01-15T02:23:16;23.10;44.90
46784;DHT22;32544;52.832;13.816;2024-01-15T02:24:17;23.10;44.90
46784;DHT22;32544;52.832;13.816;2024-01-15T02:25:18;23.10;45.00
46784;DHT22;32544;52.832;13.816;2024-01-15T02:26:18;23.10;44.80
46784;DHT22;32544;52.832;13.816;2024-01-15T02:27:19;23.10;45.30
46784;DHT22;32544;52.832;13.816;2024-01-15T02:28:20;23.10;45.10
46784;DHT22;32544;52.832;13.816;2024-01-15T02:29:21;23.10;44.70
46784;DHT22;32544;52.832;13.816;2024-01-15T02:30:21;23.10;44.80
46784;DHT22;32544;52.832;13.816;2024-01-15T02:31:22;23.10;44.80
46784;DHT22;32544;52.832;13.816;2024-01-15T02:32:23;23.10;45.10
46784;DHT22;32544;52.832;13.816;2024-01-15T02:33:23;23.10;45.10
46784;DHT22;32544;52.832;13.816;2024-01-15T02:34:24;23.10;45.20
46784;DHT22;32544;52.832;13.816;2024-01-15T02:35:24;23.10;44.90
46784;DHT22;32544;52.832;13.816;2024-01-15T02:36:25;23.10;45.20
46784;DHT22;32544;52.832;13.816;2024-01-15T02:37:26;23.10;45.10
46784;DHT22;32544;52.832;13.816;2024-01-15T02:38:26;23.10;44.90
46784;DHT22;32544;52.832;13.816;2024-01-15T02:39:27;23.10;45.30
46784;DHT22;32544;52.832;13.816;2024-01-15T02:40:29;23.10;45.10
46784;DHT22;32544;52.832;13.816;2024-01-15T02:41:29;23.10;45.40
46784;DHT22;32544;52.832;13.816;2024-01-15T02:42:30;23.10;45.30
46784;DHT22;32544;52.832;13.816;2024-01-15T02:43:30;23.10;46.10
46784;DHT22;32544;52.832;13.816;2024-01-15T02:44:31;23.10;45.30
46784;DHT22;32544;52.832;13.816;2024-01-15T02:45:32;23.10;45.40
46784;DHT22;32544;52.832;13.816;2024-01-15T02:46:32;23.10;45.50
46784;DHT22;32544;52.832;13.816;2024-01-15T02:47:33;23.10;45.70
46784;DHT22;32544;52.832;13.816;2024-01-15T02:48:33;23.10;45.00
46784;DHT22;32544;52.832;13.816;2024-01-15T02:49:35;23.10;45.50
46784;DHT22;32544;52.832;13.816;2024-01-15T02:50:35;23.10;45.40
46784;DHT22;32544;52.832;13.816;2024-01-15T02:51:36;23.10;45.10
46784;DHT22;32544;52.832;13.816;2024-01-15T02:52:37;23.10;45.30
46784;DHT22;32544;52.832;13.816;2024-01-15T02:53:37;23.10;45.10
46784;DHT22;32544;52.832;13.816;2024-01-15T02:54:38;23.10;45.10
46784;DHT22;32544;52.832;13.816;2024-01-15T02:55:38;23.10;45.50
46784;DHT22;32544;52.832;13.816;2024-01-15T02:56:39;23.10;45.50
46784;DHT22;32544;52.832;13.816;2024-01-15T02:57:39;23.10;45.40
46784;DHT22;32544;52.832;13.816;2024-01-15T02:58:40;23.10;46.00
46784;DHT22;32544;52.832;13.816;2024-01-15T02:59:40;23.10;45.50
46784;DHT22;32544;52.832;13.816;2024-01-15T03:00:41;23.10;45.60
46784;DHT22;32544;52.832;13.816;2024-01-15T03:01:42;23.10;45.40
46784;DHT22;32544;52.832;13.816;2024-01-15T03:02:44;23.10;45.30
46784;DHT22;32544;52.832;13.816;2024-01-15T03:03:44;23.10;45.40
46784;DHT22;32544;52.832;13.816;2024-01-15T03:04:45;23.00;45.30
46784;DHT22;32544;52.832;13.816;2024-01-15T03:05:46;23.10;45.60
46784;DHT22;32544;52.832;13.816;2024-01-15T03:06:47;23.00;45.50
46784;DHT22;32544;52.832;13.816;2024-01-15T03:07:48;23.00;45.70
46784;DHT22;32544;52.832;13.816;2024-01-15T03:08:48;23.00;45.80
46784;DHT22;32544;52.832;13.816;2024-01-15T03:09:49;23.00;45.60
46784;DHT22;32544;52.832;13.816;2024-01-15T03:10:50;23.00;45.70
46784;DHT22;32544;52.832;13.816;2024-01-15T03:11:50;23.00;45.70
46784;DHT22;32544;52.832;13.816;2024-01-15T03:12:51;23.00;45.60
46784;DHT22;32544;52.832;13.816;2024-01-15T03:13:51;23.00;45.40
46784;DHT22;32544;52.832;13.816;2024-01-15T03:14:52;23.00;45.60
46784;DHT22;32544;52.832;13.816;2024-01-15T03:15:52;23.00;45.50
46784;DHT22;32544;52.832;13.816;2024-01-15T03:16:53;23.00;45.60
46784;DHT22;32544;52.832;13.816;2024-01-15T03:17:54;23.00;45.60
46784;DHT22;32544;52.832;13.816;2024-01-15T03:18:54;23.00;45.80
46784;DHT22;32544;52.832;13.816;2024-01-15T03:19:55;23.00;45.60
46784;DHT22;32544;52.832;13.816;2024-01-15T03:20:55;23.00;45.70
46784;DHT22;32544;52.832;13.816;2024-01-15T03:21:56;23.00;45.80
46784;DHT22;32544;52.832;13.816;2024-01-15T03:22:57;23.00;45.60
46784;DHT22;32544;52.832;13.816;2024-01-15T03:23:57;23.00;45.80
46784;DHT22;32544;52.832;13.816;2024-01-15T03:24:58;23.00;45.30
46784;DHT22;32544;52.832;13.816;2024-01-15T03:25:58;23.00;45.60
46784;DHT22;32544;52.832;13.816;2024-01-15T03:26:59;23.00;45.40
46784;DHT22;32544;52.832;13.816;2024-01-15T03:27:59;23.00;45.80
46784;DHT22;32544;52.832;13.816;2024-01-15T03:29:00;23.00;45.30
46784;DHT22;32544;52.832;13.816;2024-01-15T03:30:01;23.00;45.70
46784;DHT22;32544;52.832;13.816;2024-01-15T03:31:02;23.00;45.80
46784;DHT22;32544;52.832;13.816;2024-01-15T03:32:03;23.00;45.70
46784;DHT22;32544;52.832;13.816;2024-01-15T03:33:04;23.00;45.30
46784;DHT22;32544;52.832;13.816;2024-01-15T03:34:04;23.00;45.70
46784;DHT22;32544;52.832;13.816;2024-01-15T03:35:05;23.00;45.60
46784;DHT22;32544;52.832;13.816;2024-01-15T03:36:06;23.00;45.80
46784;DHT22;32544;52.832;13.816;2024-01-15T03:37:06;23.00;45.30
46784;DHT22;32544;52.832;13.816;2024-01-15T03:38:07;23.00;45.60
46784;DHT22;32544;52.832;13.816;2024-01-15T03:39:07;23.00;45.60
46784;DHT22;32544;52.832;13.816;2024-01-15T03:40:08;23.00;45.60
46784;DHT22;32544;52.832;13.816;2024-01-15T03:41:09;23.00;45.80
46784;DHT22;32544;52.832;13.816;2024-01-15T03:42:10;23.00;45.90
46784;DHT22;32544;52.832;13.816;2024-01-15T03:43:11;23.00;45.60
46784;DHT22;32544;52.832;13.816;2024-01-15T03:44:11;23.00;45.50
46784;DHT22;32544;52.832;13.816;2024-01-15T03:45:12;23.00;45.80
46784;DHT22;32544;52.832;13.816;2024-01-15T03:46:12;23.00;45.50
46784;DHT22;32544;52.832;13.816;2024-01-15T03:47:13;22.90;46.00
46784;DHT22;32544;52.832;13.816;2024-01-15T03:48:13;23.00;45.50
46784;DHT22;32544;52.832;13.816;2024-01-15T03:49:14;23.00;45.60
46784;DHT22;32544;52.832;13.816;2024-01-15T03:50:14;23.00;45.50
46784;DHT22;32544;52.832;13.816;2024-01-15T03:51:16;23.00;45.30
46784;DHT22;32544;52.832;13.816;2024-01-15T03:52:17;23.00;45.70
46784;DHT22;32544;52.832;13.816;2024-01-15T03:53:18;23.00;45.60
46784;DHT22;32544;52.832;13.816;2024-01-15T03:54:18;23.00;45.30
46784;DHT22;32544;52.832;13.816;2024-01-15T03:55:19;23.00;45.00
46784;DHT22;32544;52.832;13.816;2024-01-15T03:56:19;23.00;45.70
46784;DHT22;32544;52.832;13.816;2024-01-15T03:57:20;23.00;45.10
46784;DHT22;32544;52.832;13.816;2024-01-15T03:58:20;23.00;45.10
46784;DHT22;32544;52.832;13.816;2024-01-15T03:59:21;23.00;45.00
46784;DHT22;32544;52.832;13.816;2024-01-15T04:00:22;23.00;45.00
46784;DHT22;32544;52.832;13.816;2024-01-15T04:01:22;23.00;44.70
46784;DHT22;32544;52.832;13.816;2024-01-15T04:02:23;23.00;44.70
46784;DHT22;32544;52.832;13.816;2024-01-15T04:03:23;23.00;44.60
46784;DHT22;32544;52.832;13.816;2024-01-15T04:04:24;23.00;44.50
46784;DHT22;32544;52.832;13.816;2024-01-15T04:05:25;23.00;44.50
46784;DHT22;32544;52.832;13.816;2024-01-15T04:06:25;23.00;44.50
46784;DHT22;32544;52.832;13.816;2024-01-15T04:07:26;23.00;44.50
46784;DHT22;32544;52.832;13.816;2024-01-15T04:08:26;23.00;44.40
46784;DHT22;32544;52.832;13.816;2024-01-15T04:09:27;23.00;44.40
46784;DHT22;32544;52.832;13.816;2024-01-15T04:10:27;23.10;44.40
46784;DHT22;32544;52.832;13.816;2024-01-15T04:11:28;23.10;44.40
46784;DHT22;32544;52.832;13.816;2024-01-15T04:12:28;23.10;44.30
46784;DHT22;32544;52.832;13.816;2024-01-15T04:13:32;23.10;44.30
46784;DHT22;32544;52.832;13.816;2024-01-15T04:14:32;23.10;44.30
46784;DHT22;32544;52.832;13.816;2024-01-15T04:15:33;23.10;44.20
46784;DHT22;32544;52.832;13.816;2024-01-15T04:16:33;23.10;44.20
46784;DHT22;32544;52.832;13.816;2024-01-15T04:17:34;23.10;44.20
46784;DHT22;32544;52.832;13.816;2024-01-15T04:18:34;23.20;44.20
46784;DHT22;32544;52.832;13.816;2024-01-15T04:19:35;23.20;44.10
46784;DHT22;32544;52.832;13.816;2024-01-15T04:20:35;23.20;44.20
46784;DHT22;32544;52.832;13.816;2024-01-15T04:21:36;23.20;44.20
46784;DHT22;32544;52.832;13.816;2024-01-15T04:22:37;23.20;44.10
46784;DHT22;32544;52.832;13.816;2024-01-15T04:23:38;23.20;44.10
46784;DHT22;32544;52.832;13.816;2024-01-15T04:24:39;23.20;44.00
46784;DHT22;32544;52.832;13.816;2024-01-15T04:25:39;23.20;44.10
46784;DHT22;32544;52.832;13.816;2024-01-15T04:26:42;23.20;44.00
46784;DHT22;32544;52.832;13.816;2024-01-15T04:27:43;23.20;44.10
46784;DHT22;32544;52.832;13.816;2024-01-15T04:28:43;23.20;44.10
46784;DHT22;32544;52.832;13.816;2024-01-15T04:29:44;23.20;44.10
46784;DHT22;32544;52.832;13.816;2024-01-15T04:30:45;23.20;44.00
46784;DHT22;32544;52.832;13.816;2024-01-15T04:31:45;23.20;44.10
46784;DHT22;32544;52.832;13.816;2024-01-15T04:32:46;23.20;44.10
46784;DHT22;32544;52.832;13.816;2024-01-15T04:33:46;23.10;44.10
46784;DHT22;32544;52.832;13.816;2024-01-15T04:34:47;23.10;44.10
46784;DHT22;32544;52.832;13.816;2024-01-15T04:35:48;23.10;44.10
46784;DHT22;32544;52.832;13.816;2024-01-15T04:36:49;23.10;44.10
46784;DHT22;32544;52.832;13.816;2024-01-15T04:37:49;23.10;44.20
46784;DHT22;32544;52.832;13.816;2024-01-15T04:38:50;23.10;44.20
46784;DHT22;32544;52.832;13.816;2024-01-15T04:39:50;23.10;44.20
46784;DHT22;32544;52.832;13.816;2024-01-15T04:40:53;23.00;44.10
46784;DHT22;32544;52.832;13.816;2024-01-15T04:41:53;23.00;44.30
46784;DHT22;32544;52.832;13.816;2024-01-15T04:42:54;23.10;44.40
46784;DHT22;32544;52.832;13.816;2024-01-15T04:43:54;23.00;44.90
46784;DHT22;32544;52.832;13.816;2024-01-15T04:44:55;23.00;44.30
46784;DHT22;32544;52.832;13.816;2024-01-15T04:45:56;23.00;44.50
46784;DHT22;32544;52.832;13.816;2024-01-15T04:46:56;23.00;44.30
46784;DHT22;32544;52.832;13.816;2024-01-15T04:47:57;23.00;44.40
46784;DHT22;32544;52.832;13.816;2024-01-15T04:48:58;23.00;44.60
46784;DHT22;32544;52.832;13.816;2024-01-15T04:49:58;23.00;44.90
46784;DHT22;32544;52.832;13.816;2024-01-15T04:50:59;23.00;45.00
46784;DHT22;32544;52.832;13.816;2024-01-15T04:52:00;23.00;45.10
46784;DHT22;32544;52.832;13.816;2024-01-15T04:53:01;23.00;45.00
46784;DHT22;32544;52.832;13.816;2024-01-15T04:54:01;23.00;44.80
46784;DHT22;32544;52.832;13.816;2024-01-15T04:55:02;23.00;45.10
46784;DHT22;32544;52.832;13.816;2024-01-15T04:56:02;23.00;45.50
46784;DHT22;32544;52.832;13.816;2024-01-15T04:57:03;23.00;45.60
46784;DHT22;32544;52.832;13.816;2024-01-15T04:58:03;23.00;45.60
46784;DHT22;32544;52.832;13.816;2024-01-15T04:59:04;23.00;45.50
46784;DHT22;32544;52.832;13.816;2024-01-15T05:00:05;22.90;45.40
46784;DHT22;32544;52.832;13.816;2024-01-15T05:01:05;22.90;45.60
46784;DHT22;32544;52.832;13.816;2024-01-15T05:02:08;22.90;45.50
46784;DHT22;32544;52.832;13.816;2024-01-15T05:03:08;22.90;45.50
46784;DHT22;32544;52.832;13.816;2024-01-15T05:04:09;22.90;45.30
46784;DHT22;32544;52.832;13.816;2024-01-15T05:05:09;22.90;45.50
46784;DHT22;32544;52.832;13.816;2024-01-15T05:06:10;22.90;45.60
46784;DHT22;32544;52.832;13.816;2024-01-15T05:07:11;22.90;46.00
46784;DHT22;32544;52.832;13.816;2024-01-15T05:08:11;22.90;45.50
46784;DHT22;32544;52.832;13.816;2024-01-15T05:09:12;22.90;45.80
46784;DHT22;32544;52.832;13.816;2024-01-15T05:10:13;22.90;45.80
46784;DHT22;32544;52.832;13.816;2024-01-15T05:11:14;22.90;45.70
46784;DHT22;32544;52.832;13.816;2024-01-15T05:12:15;22.90;45.70
46784;DHT22;32544;52.832;13.816;2024-01-15T05:13:15;22.90;45.60
46784;DHT22;32544;52.832;13.816;2024-01-15T05:14:16;22.90;45.80
46784;DHT22;32544;52.832;13.816;2024-01-15T05:15:16;22.90;45.70
46784;DHT22;32544;52.832;13.816;2024-01-15T05:16:17;22.90;45.10
46784;DHT22;32544;52.832;13.816;2024-01-15T05:17:18;22.90;45.60
46784;DHT22;32544;52.832;13.816;2024-01-15T05:18:18;22.90;45.30
46784;DHT22;32544;52.832;13.816;2024-01-15T05:19:19;22.90;45.60
46784;DHT22;32544;52.832;13.816;2024-01-15T05:20:19;22.90;45.40
46784;DHT22;32544;52.832;13.816;2024-01-15T05:21:20;22.90;45.50
46784;DHT22;32544;52.832;13.816;2024-01-15T05:22:20;22.90;45.20
46784;DHT22;32544;52.832;13.816;2024-01-15T05:23:21;22.90;45.70
46784;DHT22;32544;52.832;13.816;2024-01-15T05:24:22;22.90;45.70
46784;DHT22;32544;52.832;13.816;2024-01-15T05:25:22;22.90;45.50
46784;DHT22;32544;52.832;13.816;2024-01-15T05:26:23;22.90;45.60
46784;DHT22;32544;52.832;13.816;2024-01-15T05:27:23;22.90;45.60
46784;DHT22;32544;52.832;13.816;2024-01-15T05:28:24;22.90;45.60
46784;DHT22;32544;52.832;13.816;2024-01-15T05:29:24;22.90;45.30
46784;DHT22;32544;52.832;13.816;2024-01-15T05:30:25;22.90;45.60
46784;DHT22;32544;52.832;13.816;2024-01-15T05:31:25;22.90;45.10
46784;DHT22;32544;52.832;13.816;2024-01-15T05:32:26;22.90;45.20
46784;DHT22;32544;52.832;13.816;2024-01-15T05:33:27;22.90;45.10
46784;DHT22;32544;52.832;13.816;2024-01-15T05:34:27;22.90;45.50
46784;DHT22;32544;52.832;13.816;2024-01-15T05:35:28;23.00;45.10
46784;DHT22;32544;52.832;13.816;2024-01-15T05:36:28;22.90;44.70
46784;DHT22;32544;52.832;13.816;2024-01-15T05:37:29;22.90;44.80
46784;DHT22;32544;52.832;13.816;2024-01-15T05:38:30;22.90;44.50
46784;DHT22;32544;52.832;13.816;2024-01-15T05:39:30;22.90;44.50
46784;DHT22;32544;52.832;13.816;2024-01-15T05:40:31;22.90;44.40
46784;DHT22;32544;52.832;13.816;2024-01-15T05:41:32;22.90;44.40
46784;DHT22;32544;52.832;13.816;2024-01-15T05:42:32;22.90;44.40
46784;DHT22;32544;52.832;13.816;2024-01-15T05:43:33;22.90;44.30
46784;DHT22;32544;52.832;13.816;2024-01-15T05:44:33;22.90;44.30
46784;DHT22;32544;52.832;13.816;2024-01-15T05:45:34;22.90;44.30
46784;DHT22;32544;52.832;13.816;2024-01-15T05:46:35;22.90;44.30
46784;DHT22;32544;52.832;13.816;2024-01-15T05:47:35;22.90;44.70
46784;DHT22;32544;52.832;13.816;2024-01-15T05:48:36;22.90;44.30
46784;DHT22;32544;52.832;13.816;2024-01-15T05:49:36;22.90;44.30
46784;DHT22;32544;52.832;13.816;2024-01-15T05:50:37;23.00;44.30
46784;DHT22;32544;52.832;13.816;2024-01-15T05:51:38;23.00;44.30
46784;DHT22;32544;52.832;13.816;2024-01-15T05:52:38;23.00;44.30
46784;DHT22;32544;52.832;13.816;2024-01-15T05:53:39;22.90;44.30
46784;DHT22;32544;52.832;13.816;2024-01-15T05:54:41;23.00;44.20
46784;DHT22;32544;52.832;13.816;2024-01-15T05:55:42;23.00;44.20
46784;DHT22;32544;52.832;13.816;2024-01-15T05:56:42;23.00;44.20
46784;DHT22;32544;52.832;13.816;2024-01-15T05:57:43;23.00;44.10
46784;DHT22;32544;52.832;13.816;2024-01-15T05:58:44;23.00;44.10
46784;DHT22;32544;52.832;13.816;2024-01-15T05:59:44;23.00;44.10
46784;DHT22;32544;52.832;13.816;2024-01-15T06:00:45;23.00;44.10
46784;DHT22;32544;52.832;13.816;2024-01-15T06:01:46;23.00;44.10
46784;DHT22;32544;52.832;13.816;2024-01-15T06:02:47;23.00;44.10
46784;DHT22;32544;52.832;13.816;2024-01-15T06:03:47;23.00;44.10
46784;DHT22;32544;52.832;13.816;2024-01-15T06:04:48;23.00;44.00
46784;DHT22;32544;52.832;13.816;2024-01-15T06:05:48;23.00;44.00
46784;DHT22;32544;52.832;13.816;2024-01-15T06:06:49;23.00;44.00
46784;DHT22;32544;52.832;13.816;2024-01-15T06:07:49;23.00;44.00
46784;DHT22;32544;52.832;13.816;2024-01-15T06:08:50;23.00;44.10
46784;DHT22;32544;52.832;13.816;2024-01-15T06:09:51;23.00;44.00
46784;DHT22;32544;52.832;13.816;2024-01-15T06:10:51;22.90;44.00
46784;DHT22;32544;52.832;13.816;2024-01-15T06:11:52;23.00;44.70
46784;DHT22;32544;52.832;13.816;2024-01-15T06:12:52;23.00;44.00
46784;DHT22;32544;52.832;13.816;2024-01-15T06:13:53;23.00;44.00
46784;DHT22;32544;52.832;13.816;2024-01-15T06:14:53;23.00;44.10
46784;DHT22;32544;52.832;13.816;2024-01-15T06:15:54;23.00;44.30
46784;DHT22;32544;52.832;13.816;2024-01-15T06:16:54;23.00;44.10